sensor_id;sensor_type;location;lat;lon;timestamp;P1;durP1;ratioP1;P2;durP2;ratioP2
5137;SDS011;53959;53.626;11.410;2023-09-19T00:01:07;1465.47;;;807.07;;
5137;SDS011;53959;53.626;11.410;2023-09-19T00:03:33;1460.23;;;805.60;;
5137;SDS011;53959;53.626;11.410;2023-09-19T00:06:02;1468.60;;;806.60;;
5137;SDS011;53959;53.626;11.410;2023-09-19T00:08:28;1460.73;;;802.33;;
5137;SDS011;53959;53.626;11.410;2023-09-19T00:10:54;1458.03;;;801.27;;
5137;SDS011;53959;53.626;11.410;2023-09-19T00:13:19;1460.53;;;804.00;;
5137;SDS011;53959;53.626;11.410;2023-09-19T00:15:46;1462.03;;;803.67;;
5137;SDS011;53959;53.626;11.410;2023-09-19T00:18:16;1465.63;;;804.37;;
5137;SDS011;53959;53.626;11.410;2023-09-19T00:20:42;1467.40;;;806.00;;
5137;SDS011;53959;53.626;11.410;2023-09-19T00:23:08;1463.27;;;803.60;;
5137;SDS011;53959;53.626;11.410;2023-09-19T00:25:34;1464.73;;;807.47;;
5137;SDS011;53959;53.626;11.410;2023-09-19T00:28:03;1455.13;;;801.40;;
5137;SDS011;53959;53.626;11.410;2023-09-19T00:30:30;1451.27;;;801.80;;
5137;SDS011;53959;53.626;11.410;2023-09-19T00:32:55;1464.23;;;807.50;;
5137;SDS011;53959;53.626;11.410;2023-09-19T00:35:22;1451.97;;;803.23;;
5137;SDS011;53959;53.626;11.410;2023-09-19T00:37:51;1448.73;;;803.33;;
5137;SDS011;53959;53.626;11.410;2023-09-19T00:40:16;1446.70;;;801.70;;
5137;SDS011;53959;53.626;11.410;2023-09-19T00:42:42;1457.63;;;806.90;;
5137;SDS011;53959;53.626;11.410;2023-09-19T00:45:09;1448.00;;;802.23;;
5137;SDS011;53959;53.626;11.410;2023-09-19T00:47:42;1448.00;;;805.10;;
5137;SDS011;53959;53.626;11.410;2023-09-19T00:50:10;1450.23;;;802.63;;
5137;SDS011;53959;53.626;11.410;2023-09-19T00:52:39;1455.87;;;804.50;;
5137;SDS011;53959;53.626;11.410;2023-09-19T00:55:10;1459.67;;;805.53;;
5137;SDS011;53959;53.626;11.410;2023-09-19T00:57:39;1458.43;;;806.27;;
5137;SDS011;53959;53.626;11.410;2023-09-19T01:00:08;1457.73;;;804.40;;
5137;SDS011;53959;53.626;11.410;2023-09-19T01:02:41;1444.03;;;798.27;;
5137;SDS011;53959;53.626;11.410;2023-09-19T01:05:08;1460.00;;;804.73;;
5137;SDS011;53959;53.626;11.410;2023-09-19T01:07:33;1455.83;;;802.67;;
5137;SDS011;53959;53.626;11.410;2023-09-19T01:09:59;1462.47;;;805.57;;
5137;SDS011;53959;53.626;11.410;2023-09-19T01:29:15;1437.50;;;798.13;;
5137;SDS011;53959;53.626;11.410;2023-09-19T01:31:56;1430.03;;;795.07;;
5137;SDS011;53959;53.626;11.410;2023-09-19T01:34:26;1454.07;;;804.57;;
5137;SDS011;53959;53.626;11.410;2023-09-19T01:36:51;1450.87;;;802.27;;
5137;SDS011;53959;53.626;11.410;2023-09-19T01:39:17;1459.57;;;805.37;;
5137;SDS011;53959;53.626;11.410;2023-09-19T01:41:54;1461.47;;;807.37;;
5137;SDS011;53959;53.626;11.410;2023-09-19T01:45:03;1444.13;;;799.70;;
5137;SDS011;53959;53.626;11.410;2023-09-19T01:47:53;1445.70;;;802.37;;
5137;SDS011;53959;53.626;11.410;2023-09-19T01:53:05;1455.10;;;804.90;;
5137;SDS011;53959;53.626;11.410;2023-09-19T01:55:41;1445.60;;;799.53;;
5137;SDS011;53959;53.626;11.410;2023-09-19T01:58:32;1449.03;;;803.93;;
5137;SDS011;53959;53.626;11.410;2023-09-19T02:01:03;1448.67;;;802.30;;
5137;SDS011;53959;53.626;11.410;2023-09-19T02:03:33;1437.27;;;798.80;;
5137;SDS011;53959;53.626;11.410;2023-09-19T02:06:00;1449.57;;;800.57;;
5137;SDS011;53959;53.626;11.410;2023-09-19T02:08:25;1457.60;;;804.73;;
5137;SDS011;53959;53.626;11.410;2023-09-19T02:10:51;1450.87;;;801.00;;
5137;SDS011;53959;53.626;11.410;2023-09-19T02:13:18;1454.30;;;804.57;;
5137;SDS011;53959;53.626;11.410;2023-09-19T02:15:45;1454.13;;;802.80;;
5137;SDS011;53959;53.626;11.410;2023-09-19T02:18:11;1448.70;;;802.73;;
5137;SDS011;53959;53.626;11.410;2023-09-19T02:20:41;1459.90;;;806.37;;
5137;SDS011;53959;53.626;11.410;2023-09-19T02:23:08;1457.70;;;807.23;;
5137;SDS011;53959;53.626;11.410;2023-09-19T02:25:34;1451.47;;;802.93;;
5137;SDS011;53959;53.626;11.410;2023-09-19T02:28:04;1452.90;;;803.97;;
5137;SDS011;53959;53.626;11.410;2023-09-19T02:30:30;1439.27;;;796.97;;
5137;SDS011;53959;53.626;11.410;2023-09-19T02:32:56;1454.07;;;803.73;;
5137;SDS011;53959;53.626;11.410;2023-09-19T02:35:21;1446.23;;;801.17;;
5137;SDS011;53959;53.626;11.410;2023-09-19T02:37:47;1448.80;;;800.73;;
5137;SDS011;53959;53.626;11.410;2023-09-19T02:40:13;1438.40;;;797.83;;
5137;SDS011;53959;53.626;11.410;2023-09-19T02:42:46;1437.60;;;800.03;;
5137;SDS011;53959;53.626;11.410;2023-09-19T02:45:18;1450.30;;;803.90;;
5137;SDS011;53959;53.626;11.410;2023-09-19T02:47:44;1452.63;;;804.97;;
5137;SDS011;53959;53.626;11.410;2023-09-19T02:50:10;1454.60;;;805.47;;
5137;SDS011;53959;53.626;11.410;2023-09-19T02:52:36;1448.00;;;804.00;;
5137;SDS011;53959;53.626;11.410;2023-09-19T02:55:02;1416.70;;;786.20;;
5137;SDS011;53959;53.626;11.410;2023-09-19T02:57:29;1445.40;;;801.13;;
5137;SDS011;53959;53.626;11.410;2023-09-19T02:59:56;1442.97;;;801.07;;
5137;SDS011;53959;53.626;11.410;2023-09-19T03:02:21;1450.63;;;803.03;;
5137;SDS011;53959;53.626;11.410;2023-09-19T03:04:49;1450.97;;;802.43;;
5137;SDS011;53959;53.626;11.410;2023-09-19T03:07:16;1440.73;;;797.87;;
5137;SDS011;53959;53.626;11.410;2023-09-19T03:09:42;1435.30;;;798.20;;
5137;SDS011;53959;53.626;11.410;2023-09-19T03:12:08;1437.60;;;799.33;;
5137;SDS011;53959;53.626;11.410;2023-09-19T03:14:34;1441.00;;;799.80;;
5137;SDS011;53959;53.626;11.410;2023-09-19T03:17:01;1441.83;;;799.87;;
5137;SDS011;53959;53.626;11.410;2023-09-19T03:19:29;1446.03;;;802.20;;
5137;SDS011;53959;53.626;11.410;2023-09-19T03:21:56;1442.70;;;801.27;;
5137;SDS011;53959;53.626;11.410;2023-09-19T03:24:23;1427.20;;;797.77;;
5137;SDS011;53959;53.626;11.410;2023-09-19T03:26:48;1441.53;;;802.47;;
5137;SDS011;53959;53.626;11.410;2023-09-19T03:29:14;1435.10;;;798.83;;
5137;SDS011;53959;53.626;11.410;2023-09-19T03:31:41;1439.73;;;801.17;;
5137;SDS011;53959;53.626;11.410;2023-09-19T03:34:07;1447.63;;;804.07;;
5137;SDS011;53959;53.626;11.410;2023-09-19T03:36:32;1437.33;;;798.43;;
5137;SDS011;53959;53.626;11.410;2023-09-19T03:38:58;1438.13;;;798.17;;
5137;SDS011;53959;53.626;11.410;2023-09-19T03:41:23;1436.93;;;798.67;;
5137;SDS011;53959;53.626;11.410;2023-09-19T03:43:49;1445.20;;;802.43;;
5137;SDS011;53959;53.626;11.410;2023-09-19T03:46:14;1435.37;;;796.60;;
5137;SDS011;53959;53.626;11.410;2023-09-19T03:48:41;1438.77;;;799.50;;
5137;SDS011;53959;53.626;11.410;2023-09-19T03:51:06;1440.87;;;799.47;;
5137;SDS011;53959;53.626;11.410;2023-09-19T03:53:32;1445.60;;;801.97;;
5137;SDS011;53959;53.626;11.410;2023-09-19T03:55:57;1415.97;;;786.10;;
5137;SDS011;53959;53.626;11.410;2023-09-19T03:58:22;1439.00;;;798.80;;
5137;SDS011;53959;53.626;11.410;2023-09-19T04:00:48;1426.93;;;792.73;;
5137;SDS011;53959;53.626;11.410;2023-09-19T04:03:15;1424.27;;;793.67;;
5137;SDS011;53959;53.626;11.410;2023-09-19T04:05:46;1437.87;;;800.57;;
5137;SDS011;53959;53.626;11.410;2023-09-19T04:08:14;1415.73;;;788.27;;
5137;SDS011;53959;53.626;11.410;2023-09-19T04:10:43;1436.00;;;797.93;;
5137;SDS011;53959;53.626;11.410;2023-09-19T04:13:09;1434.03;;;795.90;;
5137;SDS011;53959;53.626;11.410;2023-09-19T04:15:34;1434.40;;;795.50;;
5137;SDS011;53959;53.626;11.410;2023-09-19T04:17:59;1436.30;;;798.07;;
5137;SDS011;53959;53.626;11.410;2023-09-19T04:20:25;1442.33;;;800.30;;
5137;SDS011;53959;53.626;11.410;2023-09-19T04:22:50;1438.57;;;798.73;;
5137;SDS011;53959;53.626;11.410;2023-09-19T04:25:16;1434.83;;;796.37;;
5137;SDS011;53959;53.626;11.410;2023-09-19T04:27:43;1439.63;;;798.80;;
5137;SDS011;53959;53.626;11.410;2023-09-19T04:30:09;1434.77;;;797.50;;
5137;SDS011;53959;53.626;11.410;2023-09-19T04:32:35;1431.23;;;794.37;;
5137;SDS011;53959;53.626;11.410;2023-09-19T04:35:01;1440.37;;;799.97;;
5137;SDS011;53959;53.626;11.410;2023-09-19T04:37:30;1428.17;;;793.40;;
5137;SDS011;53959;53.626;11.410;2023-09-19T04:39:56;1443.90;;;800.90;;
5137;SDS011;53959;53.626;11.410;2023-09-19T04:42:21;1431.10;;;797.37;;
5137;SDS011;53959;53.626;11.410;2023-09-19T04:44:47;1438.87;;;798.97;;
5137;SDS011;53959;53.626;11.410;2023-09-19T04:47:14;1429.90;;;798.30;;
5137;SDS011;53959;53.626;11.410;2023-09-19T04:49:41;1420.17;;;792.77;;
5137;SDS011;53959;53.626;11.410;2023-09-19T04:52:06;1431.97;;;795.93;;
5137;SDS011;53959;53.626;11.410;2023-09-19T04:54:32;1430.00;;;795.97;;
5137;SDS011;53959;53.626;11.410;2023-09-19T04:56:59;1434.60;;;798.27;;
5137;SDS011;53959;53.626;11.410;2023-09-19T04:59:25;1434.87;;;797.03;;
5137;SDS011;53959;53.626;11.410;2023-09-19T05:01:51;1437.30;;;795.43;;
5137;SDS011;53959;53.626;11.410;2023-09-19T05:04:16;1447.50;;;804.43;;
5137;SDS011;53959;53.626;11.410;2023-09-19T05:06:41;1405.40;;;785.30;;
5137;SDS011;53959;53.626;11.410;2023-09-19T05:09:07;1439.40;;;796.43;;
5137;SDS011;53959;53.626;11.410;2023-09-19T05:11:33;1444.70;;;799.27;;
5137;SDS011;53959;53.626;11.410;2023-09-19T05:13:59;1432.00;;;795.67;;
5137;SDS011;53959;53.626;11.410;2023-09-19T05:16:29;1433.77;;;794.33;;
5137;SDS011;53959;53.626;11.410;2023-09-19T05:18:56;1443.70;;;799.43;;
5137;SDS011;53959;53.626;11.410;2023-09-19T05:21:23;1446.63;;;799.47;;
5137;SDS011;53959;53.626;11.410;2023-09-19T05:23:51;1432.20;;;795.00;;
5137;SDS011;53959;53.626;11.410;2023-09-19T05:26:17;1426.37;;;792.10;;
5137;SDS011;53959;53.626;11.410;2023-09-19T05:28:43;1448.77;;;801.27;;
5137;SDS011;53959;53.626;11.410;2023-09-19T05:31:08;1437.97;;;797.90;;
5137;SDS011;53959;53.626;11.410;2023-09-19T05:33:34;1213.30;;;732.60;;
5137;SDS011;53959;53.626;11.410;2023-09-19T05:35:59;1239.18;;;747.55;;
5137;SDS011;53959;53.626;11.410;2023-09-19T05:38:24;1212.97;;;737.85;;
5137;SDS011;53959;53.626;11.410;2023-09-19T05:40:52;1217.32;;;739.40;;
5137;SDS011;53959;53.626;11.410;2023-09-19T05:43:18;1197.43;;;729.75;;
5137;SDS011;53959;53.626;11.410;2023-09-19T05:45:44;1211.20;;;737.13;;
5137;SDS011;53959;53.626;11.410;2023-09-19T05:48:13;1218.25;;;740.35;;
5137;SDS011;53959;53.626;11.410;2023-09-19T05:50:41;1211.88;;;735.38;;
5137;SDS011;53959;53.626;11.410;2023-09-19T05:53:06;1195.90;;;730.42;;
5137;SDS011;53959;53.626;11.410;2023-09-19T05:55:32;1182.70;;;721.15;;
5137;SDS011;53959;53.626;11.410;2023-09-19T05:57:58;1207.82;;;734.70;;
5137;SDS011;53959;53.626;11.410;2023-09-19T06:00:24;1207.00;;;733.83;;
5137;SDS011;53959;53.626;11.410;2023-09-19T06:02:54;1197.85;;;728.83;;
5137;SDS011;53959;53.626;11.410;2023-09-19T06:05:22;1202.25;;;730.53;;
5137;SDS011;53959;53.626;11.410;2023-09-19T06:07:48;1199.63;;;729.33;;
5137;SDS011;53959;53.626;11.410;2023-09-19T06:10:13;1208.55;;;734.60;;
5137;SDS011;53959;53.626;11.410;2023-09-19T06:12:40;1212.00;;;735.10;;
5137;SDS011;53959;53.626;11.410;2023-09-19T06:15:12;1207.15;;;732.65;;
5137;SDS011;53959;53.626;11.410;2023-09-19T06:17:55;1202.47;;;730.90;;
5137;SDS011;53959;53.626;11.410;2023-09-19T06:20:21;1208.32;;;735.83;;
5137;SDS011;53959;53.626;11.410;2023-09-19T06:22:48;1199.03;;;728.75;;
5137;SDS011;53959;53.626;11.410;2023-09-19T06:25:14;1225.88;;;741.47;;
5137;SDS011;53959;53.626;11.410;2023-09-19T06:27:44;1205.93;;;732.20;;
5137;SDS011;53959;53.626;11.410;2023-09-19T06:30:19;1222.38;;;741.45;;
5137;SDS011;53959;53.626;11.410;2023-09-19T06:32:46;1188.80;;;725.38;;
5137;SDS011;53959;53.626;11.410;2023-09-19T06:35:12;1196.35;;;729.22;;
5137;SDS011;53959;53.626;11.410;2023-09-19T06:37:39;1210.75;;;736.30;;
5137;SDS011;53959;53.626;11.410;2023-09-19T06:40:09;1198.15;;;728.20;;
5137;SDS011;53959;53.626;11.410;2023-09-19T06:42:43;1208.82;;;734.20;;
5137;SDS011;53959;53.626;11.410;2023-09-19T06:45:12;1210.13;;;735.80;;
5137;SDS011;53959;53.626;11.410;2023-09-19T06:47:43;1206.18;;;732.72;;
5137;SDS011;53959;53.626;11.410;2023-09-19T06:50:09;1214.25;;;737.08;;
5137;SDS011;53959;53.626;11.410;2023-09-19T06:52:39;1213.57;;;737.67;;
5137;SDS011;53959;53.626;11.410;2023-09-19T06:55:05;1211.90;;;737.08;;
5137;SDS011;53959;53.626;11.410;2023-09-19T06:57:31;1213.07;;;736.90;;
5137;SDS011;53959;53.626;11.410;2023-09-19T06:59:57;1214.82;;;738.25;;
5137;SDS011;53959;53.626;11.410;2023-09-19T07:02:22;1214.93;;;736.70;;
5137;SDS011;53959;53.626;11.410;2023-09-19T07:04:47;1206.47;;;734.65;;
5137;SDS011;53959;53.626;11.410;2023-09-19T07:07:14;1225.97;;;744.45;;
5137;SDS011;53959;53.626;11.410;2023-09-19T07:09:40;1210.53;;;733.92;;
5137;SDS011;53959;53.626;11.410;2023-09-19T07:12:07;1214.82;;;738.03;;
5137;SDS011;53959;53.626;11.410;2023-09-19T07:14:32;1216.95;;;740.60;;
5137;SDS011;53959;53.626;11.410;2023-09-19T07:16:58;1195.28;;;728.60;;
5137;SDS011;53959;53.626;11.410;2023-09-19T07:19:25;1172.70;;;721.25;;
5137;SDS011;53959;53.626;11.410;2023-09-19T07:21:53;1194.72;;;734.28;;
5137;SDS011;53959;53.626;11.410;2023-09-19T07:24:18;1205.22;;;737.90;;
5137;SDS011;53959;53.626;11.410;2023-09-19T07:26:45;1193.80;;;730.72;;
5137;SDS011;53959;53.626;11.410;2023-09-19T07:29:10;1206.45;;;738.53;;
5137;SDS011;53959;53.626;11.410;2023-09-19T07:31:36;1210.63;;;740.45;;
5137;SDS011;53959;53.626;11.410;2023-09-19T07:36:28;1160.43;;;754.97;;
5137;SDS011;53959;53.626;11.410;2023-09-19T07:41:20;1190.20;;;770.20;;
5137;SDS011;53959;53.626;11.410;2023-09-19T07:46:11;1139.50;;;734.13;;
5137;SDS011;53959;53.626;11.410;2023-09-19T07:51:03;1195.18;;;765.33;;
5137;SDS011;53959;53.626;11.410;2023-09-19T07:56:02;1180.53;;;759.42;;
5137;SDS011;53959;53.626;11.410;2023-09-19T08:08:13;1148.20;;;741.00;;
5137;SDS011;53959;53.626;11.410;2023-09-19T08:32:49;1029.65;;;669.05;;
5137;SDS011;53959;53.626;11.410;2023-09-19T09:00:17;1999.90;;;999.90;;
5137;SDS011;53959;53.626;11.410;2023-09-19T09:02:45;1999.90;;;971.10;;
5137;SDS011;53959;53.626;11.410;2023-09-19T09:05:12;1999.90;;;939.10;;
5137;SDS011;53959;53.626;11.410;2023-09-19T09:07:40;1999.90;;;965.50;;
5137;SDS011;53959;53.626;11.410;2023-09-19T09:10:06;1999.90;;;963.47;;
5137;SDS011;53959;53.626;11.410;2023-09-19T09:12:32;1999.90;;;942.63;;
5137;SDS011;53959;53.626;11.410;2023-09-19T09:14:57;1999.90;;;888.07;;
5137;SDS011;53959;53.626;11.410;2023-09-19T09:17:26;1999.90;;;880.40;;
5137;SDS011;53959;53.626;11.410;2023-09-19T09:19:52;1999.90;;;905.17;;
5137;SDS011;53959;53.626;11.410;2023-09-19T09:22:18;1999.90;;;917.63;;
5137;SDS011;53959;53.626;11.410;2023-09-19T09:24:56;1999.90;;;974.93;;
5137;SDS011;53959;53.626;11.410;2023-09-19T09:27:29;1999.90;;;885.60;;
5137;SDS011;53959;53.626;11.410;2023-09-19T09:29:56;1999.90;;;843.40;;
5137;SDS011;53959;53.626;11.410;2023-09-19T09:34:49;1999.90;;;843.57;;
5137;SDS011;53959;53.626;11.410;2023-09-19T09:37:18;1997.43;;;842.73;;
5137;SDS011;53959;53.626;11.410;2023-09-19T09:39:52;1999.90;;;850.90;;
5137;SDS011;53959;53.626;11.410;2023-09-19T09:42:29;1999.90;;;843.17;;
5137;SDS011;53959;53.626;11.410;2023-09-19T09:47:53;1999.90;;;863.40;;
5137;SDS011;53959;53.626;11.410;2023-09-19T09:50:38;1858.77;;;839.53;;
5137;SDS011;53959;53.626;11.410;2023-09-19T09:53:25;1717.00;;;829.67;;
5137;SDS011;53959;53.626;11.410;2023-09-19T09:55:59;1712.00;;;826.17;;
5137;SDS011;53959;53.626;11.410;2023-09-19T09:58:26;1778.07;;;832.73;;
5137;SDS011;53959;53.626;11.410;2023-09-19T10:00:54;1999.90;;;845.60;;
5137;SDS011;53959;53.626;11.410;2023-09-19T10:03:33;1999.90;;;848.23;;
5137;SDS011;53959;53.626;11.410;2023-09-19T10:06:04;1999.90;;;853.37;;
5137;SDS011;53959;53.626;11.410;2023-09-19T10:08:57;1999.90;;;851.10;;
5137;SDS011;53959;53.626;11.410;2023-09-19T10:11:49;1999.90;;;850.77;;
5137;SDS011;53959;53.626;11.410;2023-09-19T10:14:34;1999.90;;;852.60;;
5137;SDS011;53959;53.626;11.410;2023-09-19T10:17:04;1999.90;;;853.70;;
5137;SDS011;53959;53.626;11.410;2023-09-19T10:19:34;1869.87;;;847.60;;
5137;SDS011;53959;53.626;11.410;2023-09-19T10:22:02;1901.23;;;842.30;;
5137;SDS011;53959;53.626;11.410;2023-09-19T10:24:30;1949.07;;;846.07;;
5137;SDS011;53959;53.626;11.410;2023-09-19T10:27:01;1977.90;;;846.57;;
5137;SDS011;53959;53.626;11.410;2023-09-19T10:29:28;1610.70;;;841.97;;
5137;SDS011;53959;53.626;11.410;2023-09-19T10:31:57;1323.47;;;782.10;;
5137;SDS011;53959;53.626;11.410;2023-09-19T10:34:25;1999.90;;;870.77;;
5137;SDS011;53959;53.626;11.410;2023-09-19T10:36:51;1999.90;;;859.40;;
5137;SDS011;53959;53.626;11.410;2023-09-19T10:39:17;1999.90;;;845.13;;
5137;SDS011;53959;53.626;11.410;2023-09-19T10:41:45;1999.90;;;832.90;;
5137;SDS011;53959;53.626;11.410;2023-09-19T10:44:18;1963.40;;;878.43;;
5137;SDS011;53959;53.626;11.410;2023-09-19T10:46:47;1999.90;;;835.87;;
5137;SDS011;53959;53.626;11.410;2023-09-19T10:49:13;1993.73;;;862.87;;
5137;SDS011;53959;53.626;11.410;2023-09-19T10:51:41;1877.50;;;864.27;;
5137;SDS011;53959;53.626;11.410;2023-09-19T10:54:13;1978.77;;;835.07;;
5137;SDS011;53959;53.626;11.410;2023-09-19T10:56:42;1999.90;;;962.30;;
5137;SDS011;53959;53.626;11.410;2023-09-19T10:59:12;1905.17;;;916.10;;
5137;SDS011;53959;53.626;11.410;2023-09-19T11:04:31;1943.07;;;841.00;;
5137;SDS011;53959;53.626;11.410;2023-09-19T11:07:02;1999.90;;;872.27;;
5137;SDS011;53959;53.626;11.410;2023-09-19T11:15:02;1356.33;;;843.27;;
5137;SDS011;53959;53.626;11.410;2023-09-19T11:17:33;1444.77;;;911.40;;
5137;SDS011;53959;53.626;11.410;2023-09-19T11:30:31;1042.90;;;714.37;;
5137;SDS011;53959;53.626;11.410;2023-09-19T11:36:19;1472.73;;;819.03;;
5137;SDS011;53959;53.626;11.410;2023-09-19T11:43:50;1573.43;;;881.43;;
5137;SDS011;53959;53.626;11.410;2023-09-19T11:46:17;1447.17;;;901.73;;
5137;SDS011;53959;53.626;11.410;2023-09-19T11:48:49;1517.47;;;880.83;;
5137;SDS011;53959;53.626;11.410;2023-09-19T11:51:24;1523.90;;;878.67;;
5137;SDS011;53959;53.626;11.410;2023-09-19T11:53:57;1557.50;;;872.17;;
5137;SDS011;53959;53.626;11.410;2023-09-19T11:56:25;1555.27;;;867.37;;
5137;SDS011;53959;53.626;11.410;2023-09-19T11:58:56;1536.83;;;871.10;;
5137;SDS011;53959;53.626;11.410;2023-09-19T12:01:32;1635.93;;;891.43;;
5137;SDS011;53959;53.626;11.410;2023-09-19T12:04:00;1588.40;;;881.47;;
5137;SDS011;53959;53.626;11.410;2023-09-19T12:06:27;1513.80;;;899.77;;
5137;SDS011;53959;53.626;11.410;2023-09-19T12:08:54;1545.93;;;879.17;;
5137;SDS011;53959;53.626;11.410;2023-09-19T12:13:48;1241.72;;;788.67;;
5137;SDS011;53959;53.626;11.410;2023-09-19T12:16:18;1267.53;;;765.15;;
5137;SDS011;53959;53.626;11.410;2023-09-19T12:18:48;880.40;;;635.20;;
5137;SDS011;53959;53.626;11.410;2023-09-19T12:41:34;1999.90;;;991.50;;
5137;SDS011;53959;53.626;11.410;2023-09-19T12:44:01;1999.90;;;999.90;;
5137;SDS011;53959;53.626;11.410;2023-09-19T12:46:33;1999.90;;;999.90;;
5137;SDS011;53959;53.626;11.410;2023-09-19T12:49:17;1999.90;;;999.90;;
5137;SDS011;53959;53.626;11.410;2023-09-19T12:51:44;1999.90;;;999.90;;
5137;SDS011;53959;53.626;11.410;2023-09-19T12:54:11;1999.90;;;999.90;;
5137;SDS011;53959;53.626;11.410;2023-09-19T12:56:40;1999.90;;;999.90;;
5137;SDS011;53959;53.626;11.410;2023-09-19T12:59:09;1999.90;;;975.77;;
5137;SDS011;53959;53.626;11.410;2023-09-19T13:01:38;1720.20;;;834.30;;
5137;SDS011;53959;53.626;11.410;2023-09-19T13:04:12;1999.90;;;875.63;;
5137;SDS011;53959;53.626;11.410;2023-09-19T13:06:38;1999.90;;;944.37;;
5137;SDS011;53959;53.626;11.410;2023-09-19T13:09:08;1999.90;;;999.90;;
5137;SDS011;53959;53.626;11.410;2023-09-19T13:11:38;1999.90;;;952.87;;
5137;SDS011;53959;53.626;11.410;2023-09-19T13:14:24;1999.90;;;886.87;;
5137;SDS011;53959;53.626;11.410;2023-09-19T13:16:57;1999.90;;;926.00;;
5137;SDS011;53959;53.626;11.410;2023-09-19T13:19:41;1999.90;;;939.10;;
5137;SDS011;53959;53.626;11.410;2023-09-19T13:25:09;1999.90;;;944.57;;
5137;SDS011;53959;53.626;11.410;2023-09-19T13:27:45;218.57;;;52.73;;
5137;SDS011;53959;53.626;11.410;2023-09-19T13:30:13;462.37;;;128.93;;
5137;SDS011;53959;53.626;11.410;2023-09-19T13:32:39;343.00;;;114.40;;
5137;SDS011;53959;53.626;11.410;2023-09-19T13:35:06;442.07;;;114.57;;
5137;SDS011;53959;53.626;11.410;2023-09-19T13:37:34;454.83;;;118.33;;
5137;SDS011;53959;53.626;11.410;2023-09-19T13:40:07;131.50;;;39.23;;
5137;SDS011;53959;53.626;11.410;2023-09-19T13:42:33;1621.67;;;413.23;;
5137;SDS011;53959;53.626;11.410;2023-09-19T13:44:59;1999.90;;;831.77;;
5137;SDS011;53959;53.626;11.410;2023-09-19T13:47:25;1999.90;;;999.90;;
5137;SDS011;53959;53.626;11.410;2023-09-19T13:49:52;1999.90;;;999.90;;
5137;SDS011;53959;53.626;11.410;2023-09-19T13:52:18;1999.90;;;999.90;;
5137;SDS011;53959;53.626;11.410;2023-09-19T13:54:44;1999.90;;;999.90;;
5137;SDS011;53959;53.626;11.410;2023-09-19T13:57:09;1999.90;;;999.90;;
5137;SDS011;53959;53.626;11.410;2023-09-19T13:59:35;1999.90;;;965.50;;
5137;SDS011;53959;53.626;11.410;2023-09-19T14:02:00;1999.90;;;964.87;;
5137;SDS011;53959;53.626;11.410;2023-09-19T14:04:27;1999.90;;;971.97;;
5137;SDS011;53959;53.626;11.410;2023-09-19T14:06:53;1999.90;;;968.40;;
5137;SDS011;53959;53.626;11.410;2023-09-19T14:09:19;1999.90;;;972.23;;
5137;SDS011;53959;53.626;11.410;2023-09-19T14:11:45;1999.90;;;972.40;;
5137;SDS011;53959;53.626;11.410;2023-09-19T14:14:12;1999.90;;;969.87;;
5137;SDS011;53959;53.626;11.410;2023-09-19T14:16:38;1999.90;;;969.33;;
5137;SDS011;53959;53.626;11.410;2023-09-19T14:19:04;1487.33;;;812.57;;
5137;SDS011;53959;53.626;11.410;2023-09-19T14:21:30;1606.67;;;824.40;;
5137;SDS011;53959;53.626;11.410;2023-09-19T14:23:55;1670.83;;;828.43;;
5137;SDS011;53959;53.626;11.410;2023-09-19T14:26:21;1737.53;;;833.00;;
5137;SDS011;53959;53.626;11.410;2023-09-19T14:28:48;1690.77;;;831.03;;
5137;SDS011;53959;53.626;11.410;2023-09-19T14:31:13;1728.30;;;834.43;;
5137;SDS011;53959;53.626;11.410;2023-09-19T14:33:40;1832.47;;;832.83;;
5137;SDS011;53959;53.626;11.410;2023-09-19T14:36:07;1895.37;;;835.83;;
5137;SDS011;53959;53.626;11.410;2023-09-19T14:38:35;1820.83;;;837.93;;
5137;SDS011;53959;53.626;11.410;2023-09-19T14:41:02;1916.50;;;833.57;;
5137;SDS011;53959;53.626;11.410;2023-09-19T14:43:28;1726.93;;;863.60;;
5137;SDS011;53959;53.626;11.410;2023-09-19T14:45:55;1722.90;;;828.13;;
5137;SDS011;53959;53.626;11.410;2023-09-19T14:48:33;1799.93;;;834.40;;
5137;SDS011;53959;53.626;11.410;2023-09-19T14:51:05;1701.03;;;832.50;;
5137;SDS011;53959;53.626;11.410;2023-09-19T14:53:33;1637.67;;;839.60;;
5137;SDS011;53959;53.626;11.410;2023-09-19T14:56:02;1482.27;;;835.57;;
5137;SDS011;53959;53.626;11.410;2023-09-19T14:58:29;1505.40;;;826.63;;
5137;SDS011;53959;53.626;11.410;2023-09-19T15:01:16;1446.57;;;812.33;;
5137;SDS011;53959;53.626;11.410;2023-09-19T15:03:41;1341.80;;;804.10;;
5137;SDS011;53959;53.626;11.410;2023-09-19T15:06:08;1463.80;;;819.40;;
5137;SDS011;53959;53.626;11.410;2023-09-19T15:08:37;1391.70;;;817.03;;
5137;SDS011;53959;53.626;11.410;2023-09-19T15:11:05;1320.40;;;797.43;;
5137;SDS011;53959;53.626;11.410;2023-09-19T15:13:34;1398.87;;;803.77;;
5137;SDS011;53959;53.626;11.410;2023-09-19T15:16:00;1380.87;;;810.10;;
5137;SDS011;53959;53.626;11.410;2023-09-19T15:18:27;1364.80;;;813.60;;
5137;SDS011;53959;53.626;11.410;2023-09-19T15:20:53;1420.67;;;813.10;;
5137;SDS011;53959;53.626;11.410;2023-09-19T15:23:19;1409.20;;;807.90;;
5137;SDS011;53959;53.626;11.410;2023-09-19T15:25:49;1402.80;;;809.00;;
5137;SDS011;53959;53.626;11.410;2023-09-19T15:28:14;1388.17;;;801.47;;
5137;SDS011;53959;53.626;11.410;2023-09-19T15:30:40;1448.23;;;810.67;;
5137;SDS011;53959;53.626;11.410;2023-09-19T15:33:05;1424.63;;;815.97;;
5137;SDS011;53959;53.626;11.410;2023-09-19T15:35:30;1416.63;;;811.00;;
5137;SDS011;53959;53.626;11.410;2023-09-19T15:37:56;1324.13;;;798.97;;
5137;SDS011;53959;53.626;11.410;2023-09-19T15:40:23;1422.67;;;806.07;;
5137;SDS011;53959;53.626;11.410;2023-09-19T15:42:50;1462.60;;;803.70;;
5137;SDS011;53959;53.626;11.410;2023-09-19T15:45:15;1625.73;;;808.23;;
5137;SDS011;53959;53.626;11.410;2023-09-19T15:47:41;1628.27;;;809.07;;
5137;SDS011;53959;53.626;11.410;2023-09-19T15:50:07;1504.13;;;795.10;;
5137;SDS011;53959;53.626;11.410;2023-09-19T15:52:39;1494.43;;;791.23;;
5137;SDS011;53959;53.626;11.410;2023-09-19T15:55:05;1480.23;;;787.37;;
5137;SDS011;53959;53.626;11.410;2023-09-19T15:57:31;1572.30;;;800.00;;
5137;SDS011;53959;53.626;11.410;2023-09-19T15:59:57;1546.83;;;796.73;;
5137;SDS011;53959;53.626;11.410;2023-09-19T16:02:22;1579.47;;;801.90;;
5137;SDS011;53959;53.626;11.410;2023-09-19T16:04:48;1521.63;;;802.10;;
5137;SDS011;53959;53.626;11.410;2023-09-19T16:07:13;1567.40;;;800.33;;
5137;SDS011;53959;53.626;11.410;2023-09-19T16:29:03;1083.33;;;715.07;;
5137;SDS011;53959;53.626;11.410;2023-09-19T16:31:29;924.17;;;606.47;;
5137;SDS011;53959;53.626;11.410;2023-09-19T16:34:00;1071.85;;;678.45;;
5137;SDS011;53959;53.626;11.410;2023-09-19T16:36:26;982.73;;;637.97;;
5137;SDS011;53959;53.626;11.410;2023-09-19T16:38:52;1165.00;;;744.20;;